TimeCDT,TemperatureF,Dew PointF,Humidity,Sea Level PressureIn,VisibilityMPH,Wind Direction,Wind SpeedMPH,Gust SpeedMPH,PrecipitationIn,Events,Conditions,WindDirDegrees,DateUTC
12:15 AM,66.2,55.4,68,29.98,10.0,North,5.8,-,N/A,,Clear,360,2013-07-01 05:15:00
12:35 AM,64.4,55.4,73,29.98,10.0,North,4.6,-,N/A,,Clear,10,2013-07-01 05:35:00
12:55 AM,-9999,-9999,N/A,29.98,10.0,North,4.6,-,N/A,,Clear,10,2013-07-01 05:55:00
1:15 AM,-9999,-9999,N/A,29.98,10.0,North,4.6,-,N/A,,Clear,10,2013-07-01 06:15:00
1:35 AM,-9999,-9999,N/A,29.99,10.0,North,3.5,-,N/A,,Clear,10,2013-07-01 06:35:00
1:55 AM,-9999,-9999,N/A,29.99,10.0,North,4.6,-,N/A,,Clear,10,2013-07-01 06:55:00
2:15 AM,-9999,-9999,N/A,29.98,10.0,NNW,3.5,-,N/A,,Clear,340,2013-07-01 07:15:00
2:36 AM,-9999,-9999,N/A,29.99,10.0,Calm,Calm,-,N/A,,Clear,0,2013-07-01 07:36:00
2:55 AM,-9999,-9999,N/A,29.98,10.0,North,4.6,-,N/A,,Clear,360,2013-07-01 07:55:00
3:15 AM,-9999,-9999,N/A,29.98,10.0,North,5.8,-,N/A,,Clear,10,2013-07-01 08:15:00
3:35 AM,-9999,-9999,N/A,29.98,10.0,North,6.9,-,N/A,,Clear,10,2013-07-01 08:35:00
3:55 AM,-9999,-9999,N/A,29.99,10.0,North,5.8,-,N/A,,Clear,350,2013-07-01 08:55:00
4:15 AM,-9999,-9999,N/A,29.99,10.0,North,5.8,-,N/A,,Partly Cloudy,360,2013-07-01 09:15:00
4:35 AM,-9999,-9999,N/A,29.99,10.0,NNW,4.6,-,N/A,,Partly Cloudy,340,2013-07-01 09:35:00
4:55 AM,62.6,55.4,77,30.00,10.0,North,4.6,-,N/A,,Scattered Clouds,350,2013-07-01 09:55:00
5:15 AM,62.6,55.4,77,30.00,10.0,North,5.8,-,N/A,,Partly Cloudy,350,2013-07-01 10:15:00
5:35 AM,62.6,55.4,77,30.00,10.0,North,6.9,-,N/A,,Clear,350,2013-07-01 10:35:00
5:55 AM,62.6,55.4,77,30.01,10.0,North,6.9,-,N/A,,Clear,350,2013-07-01 10:55:00
6:15 AM,62.6,55.4,77,30.01,10.0,North,5.8,-,N/A,,Clear,350,2013-07-01 11:15:00
6:35 AM,62.6,57.2,82,30.01,10.0,North,6.9,-,N/A,,Clear,360,2013-07-01 11:35:00
6:55 AM,62.6,57.2,82,30.02,10.0,North,9.2,-,N/A,,Clear,10,2013-07-01 11:55:00
7:15 AM,62.6,57.2,82,30.02,10.0,North,9.2,-,N/A,,Clear,10,2013-07-01 12:15:00
7:35 AM,64.4,57.2,77,30.02,10.0,North,8.1,-,N/A,,Clear,10,2013-07-01 12:35:00
7:55 AM,64.4,57.2,77,30.03,10.0,North,6.9,-,N/A,,Clear,10,2013-07-01 12:55:00
8:16 AM,66.2,57.2,73,30.03,10.0,NNE,8.1,16.1,N/A,,Clear,20,2013-07-01 13:16:00
8:35 AM,68.0,57.2,68,30.04,10.0,NNE,11.5,16.1,N/A,,Clear,20,2013-07-01 13:35:00
8:55 AM,69.8,57.2,64,30.05,10.0,North,9.2,16.1,N/A,,Clear,10,2013-07-01 13:55:00
9:15 AM,69.8,57.2,64,30.05,10.0,NE,8.1,-,N/A,,Clear,40,2013-07-01 14:15:00
9:35 AM,69.8,57.2,64,30.05,10.0,NNE,6.9,-,N/A,,Clear,30,2013-07-01 14:35:00
9:55 AM,71.6,57.2,60,30.05,10.0,NE,9.2,-,N/A,,Clear,40,2013-07-01 14:55:00
10:15 AM,73.4,57.2,57,30.06,10.0,North,9.2,-,N/A,,Clear,10,2013-07-01 15:15:00
10:35 AM,73.4,57.2,57,30.06,10.0,North,9.2,-,N/A,,Clear,10,2013-07-01 15:35:00
10:55 AM,73.4,57.2,57,30.06,10.0,NE,10.4,17.3,N/A,,Clear,40,2013-07-01 15:55:00
11:15 AM,75.2,55.4,50,30.06,10.0,NNE,13.8,18.4,N/A,,Clear,20,2013-07-01 16:15:00
11:35 AM,75.2,55.4,50,30.06,10.0,NNE,10.4,19.6,N/A,,Partly Cloudy,20,2013-07-01 16:35:00
11:55 AM,77.0,55.4,47,30.05,10.0,NE,10.4,18.4,N/A,,Clear,40,2013-07-01 16:55:00
12:15 PM,78.8,53.6,42,30.05,10.0,North,10.4,17.3,N/A,,Partly Cloudy,10,2013-07-01 17:15:00
12:35 PM,78.8,51.8,39,30.05,10.0,NNE,11.5,23.0,N/A,,Partly Cloudy,20,2013-07-01 17:35:00
12:55 PM,78.8,51.8,39,30.05,10.0,North,15.0,23.0,N/A,,Partly Cloudy,10,2013-07-01 17:55:00
1:15 PM,78.8,53.6,42,30.04,10.0,North,12.7,19.6,N/A,,Clear,360,2013-07-01 18:15:00
1:35 PM,78.8,51.8,39,30.04,10.0,North,12.7,23.0,N/A,,Clear,350,2013-07-01 18:35:00
1:55 PM,78.8,51.8,39,30.03,10.0,NNE,15.0,19.6,N/A,,Clear,20,2013-07-01 18:55:00
2:15 PM,78.8,51.8,39,30.04,10.0,North,13.8,-,N/A,,Mostly Cloudy,10,2013-07-01 19:15:00
2:35 PM,78.8,50.0,36,30.02,10.0,North,12.7,19.6,N/A,,Scattered Clouds,10,2013-07-01 19:35:00
2:55 PM,78.8,51.8,39,30.02,10.0,NNE,11.5,18.4,N/A,,Partly Cloudy,20,2013-07-01 19:55:00
3:15 PM,80.6,51.8,37,30.02,10.0,North,15.0,21.9,N/A,,Clear,350,2013-07-01 20:15:00
3:35 PM,80.6,51.8,37,30.02,10.0,North,15.0,21.9,N/A,,Partly Cloudy,360,2013-07-01 20:35:00
3:55 PM,78.8,50.0,36,30.02,10.0,NNE,15.0,-,N/A,,Scattered Clouds,20,2013-07-01 20:55:00
4:15 PM,78.8,48.2,34,30.02,10.0,North,12.7,18.4,N/A,,Partly Cloudy,350,2013-07-01 21:15:00
4:35 PM,80.6,48.2,32,30.02,10.0,North,13.8,20.7,N/A,,Clear,350,2013-07-01 21:35:00
4:55 PM,78.8,48.2,34,30.02,10.0,North,10.4,19.6,N/A,,Partly Cloudy,360,2013-07-01 21:55:00
5:15 PM,78.8,50.0,36,30.03,10.0,North,13.8,19.6,N/A,,Partly Cloudy,10,2013-07-01 22:15:00
5:35 PM,78.8,46.4,32,30.03,10.0,North,15.0,-,N/A,,Clear,360,2013-07-01 22:35:00
5:55 PM,78.8,46.4,32,30.03,10.0,NNE,11.5,18.4,N/A,,Clear,20,2013-07-01 22:55:00
6:16 PM,77.0,46.4,34,30.03,10.0,North,11.5,18.4,N/A,,Clear,360,2013-07-01 23:16:00
6:35 PM,77.0,46.4,34,30.03,10.0,North,11.5,-,N/A,,Clear,360,2013-07-01 23:35:00
6:55 PM,77.0,48.2,36,30.03,10.0,NNE,13.8,17.3,N/A,,Clear,20,2013-07-01 23:55:00
7:16 PM,75.2,50.0,41,30.03,10.0,North,11.5,-,N/A,,Clear,360,2013-07-02 00:16:00
7:35 PM,73.4,50.0,44,30.04,10.0,NNE,9.2,-,N/A,,Clear,20,2013-07-02 00:35:00
7:55 PM,73.4,50.0,44,30.04,10.0,North,9.2,-,N/A,,Clear,10,2013-07-02 00:55:00
8:15 PM,73.4,50.0,44,30.04,10.0,North,6.9,-,N/A,,Clear,10,2013-07-02 01:15:00
8:35 PM,71.6,51.8,50,30.05,10.0,North,5.8,-,N/A,,Clear,10,2013-07-02 01:35:00
8:55 PM,69.8,51.8,53,30.04,10.0,NNE,6.9,-,N/A,,Clear,20,2013-07-02 01:55:00
9:15 PM,69.8,51.8,53,30.05,10.0,North,3.5,-,N/A,,Clear,360,2013-07-02 02:15:00
9:36 PM,69.8,51.8,53,30.05,10.0,North,4.6,-,N/A,,Clear,360,2013-07-02 02:36:00
9:55 PM,68.0,51.8,56,30.05,10.0,Calm,Calm,-,N/A,,Partly Cloudy,0,2013-07-02 02:55:00
10:15 PM,66.2,51.8,60,30.05,10.0,Calm,Calm,-,N/A,,Partly Cloudy,0,2013-07-02 03:15:00
10:35 PM,64.4,53.6,68,30.05,10.0,North,3.5,-,N/A,,Clear,360,2013-07-02 03:35:00
10:55 PM,64.4,53.6,68,30.05,10.0,Calm,Calm,-,N/A,,Clear,0,2013-07-02 03:55:00
11:15 PM,64.4,51.8,64,30.05,10.0,North,3.5,-,N/A,,Clear,360,2013-07-02 04:15:00
11:35 PM,66.2,51.8,60,30.06,10.0,North,5.8,-,N/A,,Clear,360,2013-07-02 04:35:00
11:55 PM,-9999,-9999,N/A,30.05,10.0,NNW,3.5,-,N/A,,Clear,340,2013-07-02 04:55:00